Time;durP1;ratioP1;P1;durP2;ratioP2;P2;SDS_P1;SDS_P2;PMS_P1;PMS_P2;Temp;Humidity;BMP_temperature;BMP_pressure;BME280_temperature;BME280_humidity;BME280_pressure;Samples;Min_cycle;Max_cycle;Signal;HPM_P1;HPM_P2
2021/05/05 00:01:06;;;;;;;7.40;2.20;;;;;;;5.89;71.53;100056.22;5045947;28;20092;-75
2021/05/05 00:03:32;;;;;;;4.47;1.48;;;;;;;5.89;71.33;100049.88;5038760;28;20026;-74
2021/05/05 00:05:57;;;;;;;7.68;1.60;;;;;;;5.88;71.35;100053.72;5017688;28;20053;-75
2021/05/05 00:08:23;;;;;;;7.47;1.50;;;;;;;5.83;71.56;100046.28;5031545;28;20500;-74
2021/05/05 00:10:49;;;;;;;7.18;1.77;;;;;;;5.82;71.65;100055.63;5032828;28;20990;-75
2021/05/05 00:13:15;;;;;;;7.28;1.70;;;;;;;5.77;71.68;100059.22;5069083;28;20029;-74
2021/05/05 00:15:41;;;;;;;7.47;1.75;;;;;;;5.79;71.73;100061.69;5049084;28;20033;-75
2021/05/05 00:18:06;;;;;;;5.47;1.52;;;;;;;5.78;71.76;100057.28;5019806;28;20451;-75
2021/05/05 00:20:32;;;;;;;7.70;1.70;;;;;;;5.74;71.85;100056.16;5048428;28;20030;-75
2021/05/05 00:22:58;;;;;;;8.05;1.60;;;;;;;5.73;71.98;100060.84;5030641;28;20033;-75
2021/05/05 00:25:24;;;;;;;7.60;1.60;;;;;;;5.67;71.97;100053.69;5024541;28;20034;-75
2021/05/05 00:27:49;;;;;;;7.40;1.50;;;;;;;5.68;72.18;100052.56;5031202;28;20067;-74
2021/05/05 00:30:16;;;;;;;10.32;2.30;;;;;;;5.68;72.04;100052.56;5035188;28;20030;-75
2021/05/05 00:32:41;;;;;;;6.00;1.50;;;;;;;5.68;71.98;100060.03;5037104;28;20037;-75
2021/05/05 00:35:07;;;;;;;5.82;1.42;;;;;;;5.63;71.89;100043.47;5048487;28;20036;-74
2021/05/05 00:37:33;;;;;;;5.60;1.33;;;;;;;5.62;72.11;100055.59;5024995;28;20041;-74
2021/05/05 00:39:59;;;;;;;10.35;1.80;;;;;;;5.63;72.20;100054.50;5008530;28;20030;-74
2021/05/05 00:42:25;;;;;;;5.32;1.63;;;;;;;5.59;72.20;100052.28;5054746;28;20025;-75
2021/05/05 00:44:55;;;;;;;7.38;1.50;;;;;;;5.55;72.19;100055.88;5007336;28;20069;-75
2021/05/05 00:47:22;;;;;;;6.20;1.83;;;;;;;5.53;72.19;100060.81;5065513;28;20453;-75
2021/05/05 00:49:48;;;;;;;6.78;1.85;;;;;;;5.49;72.32;100052.28;5026746;28;20029;-75
2021/05/05 00:52:13;;;;;;;5.88;1.77;;;;;;;5.47;72.26;100053.66;5027565;28;20029;-75
2021/05/05 00:54:39;;;;;;;6.55;2.03;;;;;;;5.47;72.23;100071.00;5034453;28;20049;-74
2021/05/05 00:57:06;;;;;;;9.02;1.88;;;;;;;5.43;72.30;100063.53;5066298;28;20060;-74
2021/05/05 00:59:32;;;;;;;7.00;1.58;;;;;;;5.42;72.36;100064.66;5067067;28;20044;-75
2021/05/05 01:01:58;;;;;;;6.85;1.30;;;;;;;5.42;72.31;100067.41;5033974;28;20061;-75
2021/05/05 01:04:23;;;;;;;5.57;1.63;;;;;;;5.46;72.21;100069.34;5047341;28;20445;-74
2021/05/05 01:06:49;;;;;;;7.70;1.90;;;;;;;5.36;72.42;100063.81;5033746;28;20053;-74
2021/05/05 01:09:15;;;;;;;6.25;1.58;;;;;;;5.35;72.53;100067.66;5034042;28;20638;-74
2021/05/05 01:11:42;;;;;;;10.02;2.13;;;;;;;5.30;72.58;100062.97;5030275;28;20030;-75
2021/05/05 01:14:08;;;;;;;9.35;2.15;;;;;;;5.28;72.54;100067.09;5032306;28;20025;-74
2021/05/05 01:16:34;;;;;;;9.38;2.10;;;;;;;5.26;72.55;100058.25;5049319;28;20030;-75
2021/05/05 01:18:59;;;;;;;7.95;1.70;;;;;;;5.24;72.55;100064.03;5048207;28;20065;-74
2021/05/05 01:21:25;;;;;;;7.90;1.80;;;;;;;5.20;72.58;100062.09;5030140;28;20106;-75
2021/05/05 01:23:51;;;;;;;5.40;1.60;;;;;;;5.21;72.55;100060.97;5031298;28;20087;-74
2021/05/05 01:26:16;;;;;;;5.57;1.40;;;;;;;5.19;72.64;100057.69;5029699;28;20034;-75
2021/05/05 01:28:42;;;;;;;6.75;1.80;;;;;;;5.17;72.54;100065.38;5018792;28;20061;-74
2021/05/05 01:31:09;;;;;;;4.50;1.77;;;;;;;5.14;72.47;100059.31;5028433;28;20506;-76
2021/05/05 01:33:35;;;;;;;7.40;1.83;;;;;;;5.13;72.86;100065.09;5030607;28;20025;-74
2021/05/05 01:36:00;;;;;;;7.25;1.63;;;;;;;5.10;72.59;100060.13;5020460;28;20076;-74
2021/05/05 01:38:26;;;;;;;9.75;1.80;;;;;;;5.10;72.63;100066.47;5034916;28;20051;-74
2021/05/05 01:40:52;;;;;;;6.18;1.40;;;;;;;5.09;72.64;100069.47;5028233;28;20028;-74
2021/05/05 01:43:18;;;;;;;7.82;1.42;;;;;;;5.08;72.59;100067.84;5032466;28;20478;-74
2021/05/05 01:45:43;;;;;;;6.70;1.58;;;;;;;5.08;72.52;100062.31;5024288;28;20098;-74
2021/05/05 01:48:09;;;;;;;7.80;1.30;;;;;;;5.04;72.65;100066.69;5029070;28;20034;-74
2021/05/05 01:50:35;;;;;;;7.05;2.03;;;;;;;5.00;72.63;100055.41;5020916;28;20482;-74
2021/05/05 01:53:01;;;;;;;6.38;1.20;;;;;;;4.95;72.84;100055.38;5018858;28;20061;-74
2021/05/05 01:55:27;;;;;;;6.00;1.70;;;;;;;4.95;72.63;100060.88;5017123;28;20033;-74
2021/05/05 01:57:52;;;;;;;5.35;1.60;;;;;;;4.92;72.63;100050.41;5031591;28;20101;-74
2021/05/05 02:00:23;;;;;;;5.10;1.48;;;;;;;4.89;72.80;100064.72;5013273;28;20025;-74
2021/05/05 02:02:49;;;;;;;5.57;1.58;;;;;;;4.84;73.02;100072.94;5018065;28;20033;-74
2021/05/05 02:05:15;;;;;;;5.93;1.45;;;;;;;4.85;72.87;100060.84;5025943;28;20026;-74
2021/05/05 02:07:41;;;;;;;7.03;1.77;;;;;;;4.81;72.99;100055.03;5022307;28;20032;-74
2021/05/05 02:10:11;;;;;;;8.40;1.50;;;;;;;4.81;73.18;100051.47;5010813;28;20043;-74
2021/05/05 02:12:37;;;;;;;3.75;1.38;;;;;;;4.75;73.14;100053.34;5025874;28;20081;-73
2021/05/05 02:15:04;;;;;;;6.05;1.52;;;;;;;4.74;73.16;100061.88;5023518;28;20508;-74
2021/05/05 02:17:30;;;;;;;5.03;1.80;;;;;;;4.76;73.14;100062.44;5035519;28;20040;-74
2021/05/05 02:19:56;;;;;;;7.90;1.55;;;;;;;4.69;73.46;100068.19;5015032;28;20113;-74
2021/05/05 02:22:21;;;;;;;8.80;1.50;;;;;;;4.72;73.21;100064.88;5007671;28;20017;-74
2021/05/05 02:24:47;;;;;;;5.22;1.70;;;;;;;4.66;73.48;100061.28;5016852;28;20041;-74
2021/05/05 02:27:13;;;;;;;7.88;1.60;;;;;;;4.63;73.49;100072.00;5033400;28;20026;-74
2021/05/05 02:29:38;;;;;;;6.03;1.58;;;;;;;4.63;73.58;100066.50;5032993;28;20110;-74
2021/05/05 02:32:10;;;;;;;6.72;1.58;;;;;;;4.62;73.51;100076.66;5056677;28;20076;-74
2021/05/05 02:34:36;;;;;;;7.60;1.98;;;;;;;4.58;73.52;100082.97;5030783;28;20040;-74
2021/05/05 02:37:03;;;;;;;4.88;1.52;;;;;;;4.60;73.53;100081.59;5027780;28;20054;-74
2021/05/05 02:39:29;;;;;;;5.13;1.52;;;;;;;4.54;73.82;100085.41;5031978;28;20058;-74
2021/05/05 02:41:55;;;;;;;7.97;1.58;;;;;;;4.56;73.50;100076.88;5023155;28;20482;-74
2021/05/05 02:44:21;;;;;;;5.32;1.83;;;;;;;4.55;73.55;100087.06;5030801;28;20025;-74
2021/05/05 02:46:47;;;;;;;6.15;1.60;;;;;;;4.52;73.74;100084.03;5019974;28;20412;-74
2021/05/05 02:49:13;;;;;;;7.15;1.70;;;;;;;4.50;73.81;100088.94;5034325;28;20109;-74
2021/05/05 02:51:39;;;;;;;5.70;1.67;;;;;;;4.48;73.67;100087.31;5065777;28;20108;-74
2021/05/05 02:54:05;;;;;;;3.95;1.42;;;;;;;4.48;73.64;100086.44;5034568;28;20064;-74
2021/05/05 02:56:31;;;;;;;8.20;1.83;;;;;;;4.46;73.49;100077.66;5009108;28;20029;-74
2021/05/05 02:58:56;;;;;;;5.22;1.70;;;;;;;4.45;73.70;100082.31;5024604;28;20099;-74
2021/05/05 03:01:22;;;;;;;8.98;2.08;;;;;;;4.44;73.76;100088.09;5030785;28;20037;-74
2021/05/05 03:03:48;;;;;;;6.57;1.90;;;;;;;4.40;73.79;100086.94;5027092;28;20034;-74
2021/05/05 03:06:13;;;;;;;5.57;1.70;;;;;;;4.40;73.88;100081.44;5025593;28;20033;-74
2021/05/05 03:08:39;;;;;;;7.40;1.65;;;;;;;4.40;73.85;100076.78;5027958;28;20029;-74
2021/05/05 03:11:05;;;;;;;8.80;2.00;;;;;;;4.38;73.88;100086.41;5015329;28;20028;-74
2021/05/05 03:13:31;;;;;;;9.18;2.10;;;;;;;4.37;73.96;100102.03;5020216;28;20057;-74
2021/05/05 03:15:57;;;;;;;6.25;1.65;;;;;;;4.40;73.95;100100.69;5036712;28;20029;-74
2021/05/05 03:18:22;;;;;;;7.38;1.65;;;;;;;4.40;74.16;100097.94;5032710;28;20075;-74
2021/05/05 03:20:48;;;;;;;5.90;2.00;;;;;;;4.39;74.28;100108.13;5023326;28;20105;-74
2021/05/05 03:23:14;;;;;;;9.82;2.00;;;;;;;4.40;74.45;100109.78;5033114;28;20040;-74
2021/05/05 03:25:40;;;;;;;8.95;2.00;;;;;;;4.43;74.48;100103.75;5036731;28;20506;-74
2021/05/05 03:28:07;;;;;;;6.28;1.83;;;;;;;4.45;74.50;100106.22;5024584;28;20081;-74
2021/05/05 03:30:33;;;;;;;8.25;1.92;;;;;;;4.51;74.37;100094.16;5030349;28;20081;-74
2021/05/05 03:32:58;;;;;;;8.55;2.00;;;;;;;4.50;74.74;100092.53;5037467;28;20378;-74
2021/05/05 03:35:24;;;;;;;7.63;2.05;;;;;;;4.55;74.63;100091.75;5035406;28;20060;-74
2021/05/05 03:37:50;;;;;;;8.75;2.00;;;;;;;4.56;74.52;100090.63;5056945;28;20447;-74
2021/05/05 03:40:16;;;;;;;7.47;1.90;;;;;;;4.56;74.95;100085.13;5027276;28;20609;-74
2021/05/05 03:42:41;;;;;;;7.03;1.80;;;;;;;4.56;74.78;100094.22;5033688;28;20792;-74
2021/05/05 03:45:08;;;;;;;7.53;1.88;;;;;;;4.58;74.75;100086.53;5033825;28;20044;-74
2021/05/05 03:47:33;;;;;;;7.15;1.98;;;;;;;4.56;75.14;100083.22;5019556;28;20037;-74
2021/05/05 03:50:00;;;;;;;4.70;1.70;;;;;;;4.60;74.64;100092.59;5029793;28;20026;-74
2021/05/05 03:52:26;;;;;;;11.13;2.42;;;;;;;4.63;75.35;100096.75;5050755;28;20025;-74
2021/05/05 03:54:52;;;;;;;7.45;1.83;;;;;;;4.60;75.04;100095.34;5069538;28;20032;-74
2021/05/05 03:57:18;;;;;;;6.45;2.13;;;;;;;4.65;74.80;100092.66;5028395;28;20034;-74
2021/05/05 03:59:43;;;;;;;7.78;2.08;;;;;;;4.64;75.23;100101.97;5027166;28;20059;-74
2021/05/05 04:02:09;;;;;;;8.57;1.63;;;;;;;4.64;75.18;100114.91;5036787;28;20104;-74
2021/05/05 04:04:35;;;;;;;5.97;1.70;;;;;;;4.65;74.96;100111.03;5032273;28;20029;-74
2021/05/05 04:07:00;;;;;;;6.18;1.38;;;;;;;4.64;74.75;100112.97;5030247;28;20057;-74
2021/05/05 04:09:26;;;;;;;9.45;1.92;;;;;;;4.64;74.62;100118.47;5023091;28;20037;-74
2021/05/05 04:11:52;;;;;;;10.45;1.60;;;;;;;4.64;74.31;100129.47;5064397;28;20049;-74
2021/05/05 04:14:18;;;;;;;7.47;2.00;;;;;;;4.68;74.25;100127.88;5068964;28;20029;-75
2021/05/05 04:16:43;;;;;;;8.57;2.13;;;;;;;4.67;74.28;100139.94;5033838;28;20064;-74
2021/05/05 04:19:09;;;;;;;7.22;2.30;;;;;;;4.62;74.36;100131.66;5030257;28;20034;-73
2021/05/05 04:21:35;;;;;;;5.00;1.80;;;;;;;4.61;74.40;100140.19;5066957;28;20108;-75
2021/05/05 04:24:01;;;;;;;7.38;1.67;;;;;;;4.64;74.46;100140.47;5065144;28;20122;-74
2021/05/05 04:26:26;;;;;;;5.47;1.90;;;;;;;4.61;74.80;100141.00;5032443;28;20037;-74
2021/05/05 04:28:52;;;;;;;5.75;1.55;;;;;;;4.62;74.61;100150.09;5015836;28;20026;-74
2021/05/05 04:31:18;;;;;;;9.13;2.00;;;;;;;4.62;74.51;100142.66;5026654;28;20026;-74
2021/05/05 04:33:45;;;;;;;4.78;1.60;;;;;;;4.63;74.81;100165.53;5025555;28;20061;-74
2021/05/05 04:36:11;;;;;;;8.68;1.75;;;;;;;4.65;74.87;100157.81;5020921;28;20088;-74
2021/05/05 04:38:37;;;;;;;7.90;1.90;;;;;;;4.66;75.06;100157.56;5028089;28;20548;-74
2021/05/05 04:41:03;;;;;;;7.07;2.25;;;;;;;4.68;74.88;100147.13;5043149;28;20108;-74
2021/05/05 04:43:29;;;;;;;5.60;2.25;;;;;;;4.69;74.57;100165.28;5031145;28;20052;-74
2021/05/05 04:45:54;;;;;;;6.65;2.00;;;;;;;4.74;74.77;100169.19;5027650;28;20385;-74
2021/05/05 04:48:20;;;;;;;6.30;1.80;;;;;;;4.70;74.73;100166.94;5064525;28;20036;-74
2021/05/05 04:50:46;;;;;;;5.28;1.50;;;;;;;4.71;74.72;100173.28;5033747;28;20044;-74
2021/05/05 04:53:11;;;;;;;6.93;2.10;;;;;;;4.72;74.70;100176.84;5030731;28;20068;-74
2021/05/05 04:55:37;;;;;;;6.90;1.92;;;;;;;4.74;74.85;100171.94;5034887;28;20390;-74
2021/05/05 04:58:03;;;;;;;5.88;1.55;;;;;;;4.72;74.66;100174.94;5031486;28;20104;-74
2021/05/05 05:00:28;;;;;;;5.47;1.67;;;;;;;4.76;74.89;100175.22;5036899;28;20052;-74
2021/05/05 05:02:54;;;;;;;5.55;1.60;;;;;;;4.80;75.21;100184.63;5029170;28;20030;-74
2021/05/05 05:05:22;;;;;;;5.97;1.63;;;;;;;4.83;75.04;100178.59;5033494;28;20068;-74
2021/05/05 05:07:48;;;;;;;5.13;1.95;;;;;;;4.90;75.31;100190.19;5024748;28;20056;-74
2021/05/05 05:10:14;;;;;;;5.28;1.45;;;;;;;4.91;75.22;100189.94;5034678;28;20497;-74
2021/05/05 05:12:40;;;;;;;7.75;1.55;;;;;;;4.93;76.04;100195.16;5029307;28;20037;-74
2021/05/05 05:15:06;;;;;;;3.92;1.55;;;;;;;4.97;75.92;100190.78;5022855;28;20025;-74
2021/05/05 05:17:32;;;;;;;6.57;1.88;;;;;;;5.00;75.33;100193.03;5030301;28;20029;-74
2021/05/05 05:19:58;;;;;;;8.55;2.03;;;;;;;5.04;76.12;100193.31;5028261;28;20037;-74
2021/05/05 05:22:23;;;;;;;6.38;1.90;;;;;;;5.05;75.28;100192.22;5056124;28;20093;-74
2021/05/05 05:24:49;;;;;;;6.07;1.73;;;;;;;5.09;75.01;100191.41;5060058;28;20053;-75
2021/05/05 05:27:15;;;;;;;4.47;1.58;;;;;;;5.10;75.17;100193.09;5034340;28;20033;-74
2021/05/05 05:29:41;;;;;;;12.43;2.03;;;;;;;5.11;74.88;100194.75;5031962;28;20037;-74
2021/05/05 05:32:06;;;;;;;3.20;1.60;;;;;;;5.12;75.06;100196.38;5029995;28;20029;-74
2021/05/05 05:34:32;;;;;;;5.65;1.70;;;;;;;5.10;75.14;100195.84;5021156;28;20033;-74
2021/05/05 05:36:58;;;;;;;7.00;1.70;;;;;;;5.11;75.06;100202.19;5030092;28;20050;-75
2021/05/05 05:39:23;;;;;;;7.18;1.90;;;;;;;5.12;75.20;100214.84;5028976;28;20409;-74
2021/05/05 05:41:49;;;;;;;6.53;1.60;;;;;;;5.12;75.53;100212.91;5018953;28;20093;-74
2021/05/05 05:44:15;;;;;;;5.85;1.65;;;;;;;5.10;75.38;100217.88;5029460;28;20030;-74
2021/05/05 05:46:40;;;;;;;8.82;1.80;;;;;;;5.14;75.29;100218.16;5022005;28;20083;-74
2021/05/05 05:49:07;;;;;;;8.48;2.30;;;;;;;5.15;75.40;100228.91;5030857;28;20062;-74
2021/05/05 05:51:33;;;;;;;4.45;1.70;;;;;;;5.23;75.21;100229.50;5029070;28;20053;-74
2021/05/05 05:53:59;;;;;;;9.57;1.70;;;;;;;5.29;75.89;100233.94;5019375;28;20133;-75
2021/05/05 05:56:24;;;;;;;9.32;2.13;;;;;;;5.38;77.87;100243.38;5055718;28;20498;-74
2021/05/05 05:58:50;;;;;;;8.75;1.85;;;;;;;5.46;78.31;100245.63;5046091;28;20029;-74
2021/05/05 06:01:16;;;;;;;8.85;2.17;;;;;;;5.56;77.77;100245.66;5037990;28;20029;-74
2021/05/05 06:03:42;;;;;;;6.22;1.88;;;;;;;5.70;78.88;100270.00;5025554;28;20026;-74
2021/05/05 06:06:08;;;;;;;10.10;2.38;;;;;;;5.86;78.13;100271.72;5027089;28;20030;-74
2021/05/05 06:08:33;;;;;;;7.13;2.08;;;;;;;6.00;75.65;100272.91;5057478;28;20475;-74
2021/05/05 06:10:59;;;;;;;8.80;1.88;;;;;;;6.17;76.27;100278.22;5029548;28;20052;-74
2021/05/05 06:13:26;;;;;;;7.55;1.77;;;;;;;6.31;76.63;100274.97;5033857;28;20045;-75
2021/05/05 06:15:51;;;;;;;6.53;1.88;;;;;;;6.46;76.38;100283.25;5016947;28;20036;-74
2021/05/05 06:18:17;;;;;;;8.48;2.10;;;;;;;6.55;77.01;100276.13;5029010;28;20093;-75
2021/05/05 06:20:43;;;;;;;9.73;1.83;;;;;;;6.64;75.81;100288.28;5024934;28;20086;-74
2021/05/05 06:23:09;;;;;;;5.85;1.90;;;;;;;6.72;75.28;100289.69;5034083;28;20037;-74
2021/05/05 06:25:34;;;;;;;6.97;1.77;;;;;;;6.81;76.81;100278.91;5026675;28;20053;-74
2021/05/05 06:28:00;;;;;;;5.32;1.65;;;;;;;6.87;76.38;100259.31;5031776;28;20406;-75
2021/05/05 06:30:26;;;;;;;6.88;1.70;;;;;;;6.94;76.06;100262.63;5031508;28;20482;-74
2021/05/05 06:32:51;;;;;;;10.60;1.90;;;;;;;7.03;76.40;100262.09;5030272;28;20378;-74
2021/05/05 06:35:18;;;;;;;7.43;1.80;;;;;;;7.10;75.31;100270.91;5018741;28;20385;-74
2021/05/05 06:37:43;;;;;;;8.05;1.92;;;;;;;7.17;75.95;100274.22;5034001;28;20033;-74
2021/05/05 06:40:10;;;;;;;10.07;2.33;;;;;;;7.24;76.75;100274.75;5025685;28;20033;-74
2021/05/05 06:42:36;;;;;;;9.82;2.53;;;;;;;7.28;76.69;100275.88;5037622;28;20375;-74
2021/05/05 06:45:02;;;;;;;8.52;1.98;;;;;;;7.35;75.13;100281.97;5035006;28;20098;-75
2021/05/05 06:47:28;;;;;;;7.57;2.10;;;;;;;7.44;75.08;100279.44;5036748;28;20489;-75
2021/05/05 06:49:53;;;;;;;6.20;1.80;;;;;;;7.54;74.23;100293.22;5028951;28;20048;-75
2021/05/05 06:52:19;;;;;;;6.25;1.77;;;;;;;7.67;74.93;100282.72;5028964;28;20116;-75
2021/05/05 06:54:45;;;;;;;7.28;2.00;;;;;;;7.83;73.91;100287.94;5021905;28;20059;-76
2021/05/05 06:57:10;;;;;;;8.98;2.20;;;;;;;7.98;74.22;100284.28;5034365;28;20113;-76
2021/05/05 06:59:36;;;;;;;8.38;1.80;;;;;;;8.18;72.08;100290.81;5037251;28;20053;-75
2021/05/05 07:02:02;;;;;;;8.23;1.80;;;;;;;8.34;72.13;100284.13;5027872;28;20045;-75
2021/05/05 07:04:28;;;;;;;4.90;1.80;;;;;;;8.57;71.09;100285.38;5029287;28;20041;-76
2021/05/05 07:06:54;;;;;;;6.47;1.70;;;;;;;8.81;70.79;100298.53;5030338;28;20780;-75
2021/05/05 07:09:20;;;;;;;6.72;1.60;;;;;;;9.05;70.18;100293.91;5019949;28;20057;-75
2021/05/05 07:11:46;;;;;;;3.60;1.33;;;;;;;9.29;69.69;100295.94;5028501;28;20088;-75
2021/05/05 07:14:12;;;;;;;9.35;1.60;;;;;;;9.52;69.65;100289.63;5049317;28;20031;-76
2021/05/05 07:16:38;;;;;;;7.10;1.35;;;;;;;9.78;68.95;100297.69;5019299;28;20064;-76
2021/05/05 07:19:03;;;;;;;7.25;1.63;;;;;;;10.00;68.53;100295.22;5028974;28;20445;-76
2021/05/05 07:21:30;;;;;;;6.80;1.67;;;;;;;10.25;67.87;100302.41;5003581;28;20040;-76
2021/05/05 07:23:59;;;;;;;5.50;1.38;;;;;;;10.46;67.47;100302.97;5019318;28;20106;-77
2021/05/05 07:26:24;;;;;;;8.18;1.30;;;;;;;10.71;67.14;100317.63;5060750;28;20487;-75
2021/05/05 07:28:50;;;;;;;4.47;1.20;;;;;;;10.94;66.65;100313.94;5026424;28;20160;-76
2021/05/05 07:31:16;;;;;;;6.78;1.50;;;;;;;11.14;66.46;100314.75;5022743;28;20541;-75
2021/05/05 07:33:41;;;;;;;8.13;1.92;;;;;;;11.37;65.89;100315.78;5017301;28;20041;-70
2021/05/05 07:36:14;;;;;;;8.63;1.67;;;;;;;11.58;65.63;100313.47;5028430;28;20409;-69
2021/05/05 07:38:57;;;;;;;8.18;1.60;;;;;;;11.72;65.46;100311.53;5028329;28;20072;-69
2021/05/05 07:49:17;;;;;;;6.70;1.85;;;;;;;12.25;63.20;100304.69;5038782;28;20033;-69
2021/05/05 07:51:43;;;;;;;7.18;1.77;;;;;;;12.34;63.19;100310.34;5032063;28;20047;-72
2021/05/05 07:54:10;;;;;;;7.80;2.00;;;;;;;12.38;63.08;100314.16;5017340;28;20053;-70
2021/05/05 07:56:36;;;;;;;6.32;1.60;;;;;;;12.45;62.99;100315.41;5004344;28;20076;-70
2021/05/05 07:59:03;;;;;;;6.43;1.50;;;;;;;12.50;62.96;100311.66;5000778;28;20029;-70
2021/05/05 08:01:29;;;;;;;7.95;1.92;;;;;;;12.59;62.64;100307.03;5017883;28;20030;-69
2021/05/05 08:03:55;;;;;;;7.63;1.50;;;;;;;12.72;62.22;100314.50;5018867;28;20419;-70
2021/05/05 08:06:21;;;;;;;4.03;1.05;;;;;;;12.86;62.18;100316.44;5016987;28;20494;-70
2021/05/05 08:08:47;;;;;;;6.22;1.63;;;;;;;13.02;61.86;100314.94;5017065;28;20064;-70
2021/05/05 08:11:13;;;;;;;6.60;1.60;;;;;;;13.19;61.76;100308.69;5001866;28;20078;-69
2021/05/05 08:13:39;;;;;;;5.50;1.40;;;;;;;13.37;61.21;100318.03;5034815;28;20040;-70
2021/05/05 08:16:06;;;;;;;6.63;1.35;;;;;;;13.51;61.08;100310.44;5005875;28;20036;-69
2021/05/05 08:18:33;;;;;;;8.02;1.65;;;;;;;13.64;60.79;100305.91;5017075;28;20040;-70
2021/05/05 08:21:01;;;;;;;6.45;1.83;;;;;;;13.76;60.46;100308.94;5017372;28;20109;-70
2021/05/05 08:23:27;;;;;;;6.05;1.55;;;;;;;13.93;59.65;100305.41;5004130;28;20034;-69
2021/05/05 08:25:53;;;;;;;7.70;1.40;;;;;;;14.02;59.72;100308.22;5028745;28;20033;-70
2021/05/05 08:28:19;;;;;;;6.78;1.50;;;;;;;14.17;59.29;100312.53;5064571;28;20026;-70
2021/05/05 08:30:46;;;;;;;6.72;1.58;;;;;;;14.32;58.94;100317.72;5000584;28;20030;-69
2021/05/05 08:33:12;;;;;;;6.88;1.45;;;;;;;14.43;58.59;100315.41;5044479;28;20037;-69
2021/05/05 08:35:39;;;;;;;8.27;1.70;;;;;;;14.53;57.93;100318.75;5007578;28;20054;-71
2021/05/05 08:38:06;;;;;;;7.90;1.50;;;;;;;14.65;57.84;100320.09;5029194;28;20038;-70
2021/05/05 08:40:32;;;;;;;7.00;1.83;;;;;;;14.71;57.51;100302.03;5024085;28;20029;-69
2021/05/05 08:42:59;;;;;;;6.72;1.65;;;;;;;14.85;57.17;100313.91;5032150;28;20069;-70
2021/05/05 08:45:27;;;;;;;7.65;1.48;;;;;;;14.96;56.91;100308.81;5012664;28;20032;-69
2021/05/05 08:47:55;;;;;;;8.40;1.50;;;;;;;15.02;56.63;100313.06;5019384;28;20062;-69
2021/05/05 08:50:23;;;;;;;8.60;1.60;;;;;;;15.08;55.70;100317.34;5017081;28;20033;-70
2021/05/05 08:52:49;;;;;;;7.28;1.60;;;;;;;15.14;55.60;100315.22;5030693;28;20033;-70
2021/05/05 08:55:17;;;;;;;8.98;1.40;;;;;;;15.18;55.70;100316.19;5068725;28;20026;-69
2021/05/05 08:57:43;;;;;;;8.38;1.70;;;;;;;15.26;55.81;100312.56;5030205;28;20034;-69
2021/05/05 09:00:12;;;;;;;6.03;1.33;;;;;;;15.35;55.23;100316.19;4997179;28;20127;-70
2021/05/05 09:02:38;;;;;;;7.65;1.50;;;;;;;15.47;54.83;100320.28;5020928;28;20030;-70
2021/05/05 09:05:08;;;;;;;6.22;1.27;;;;;;;15.60;54.59;100310.84;5012591;28;20037;-69
2021/05/05 09:07:35;;;;;;;7.35;1.70;;;;;;;15.71;54.96;100317.81;5025057;28;20037;-69
2021/05/05 09:10:14;;;;;;;4.90;1.38;;;;;;;15.76;54.05;100320.41;5023141;28;20026;-69
2021/05/05 09:12:41;;;;;;;6.32;1.15;;;;;;;15.89;51.86;100323.34;5048553;28;20141;-69
2021/05/05 09:15:08;;;;;;;7.88;1.20;;;;;;;15.92;51.85;100329.09;5031978;28;20425;-69
2021/05/05 09:17:34;;;;;;;4.60;1.20;;;;;;;15.98;51.32;100324.13;5066547;28;20092;-69
2021/05/05 09:20:03;;;;;;;6.40;1.20;;;;;;;15.89;49.47;100328.94;5048815;28;20552;-69
2021/05/05 09:22:39;;;;;;;6.75;1.00;;;;;;;15.81;48.59;100328.63;5032770;28;20033;-69
2021/05/05 09:25:07;;;;;;;3.65;1.02;;;;;;;15.76;48.71;100326.00;5032812;28;20044;-70
2021/05/05 09:27:34;;;;;;;4.03;0.80;;;;;;;15.85;49.23;100318.41;5018032;28;20029;-69
2021/05/05 09:30:03;;;;;;;6.80;1.20;;;;;;;15.90;49.21;100317.41;5005409;28;20107;-69
2021/05/05 09:32:29;;;;;;;5.63;1.10;;;;;;;15.99;50.20;100322.97;5008837;28;20057;-69
2021/05/05 09:35:00;;;;;;;3.47;1.30;;;;;;;16.09;50.49;100328.22;5027344;28;20025;-69
2021/05/05 09:37:26;;;;;;;4.65;1.00;;;;;;;16.22;49.81;100335.56;5015305;28;20064;-69
2021/05/05 09:40:06;;;;;;;5.00;1.20;;;;;;;16.40;50.35;100333.50;5027369;28;20038;-69
2021/05/05 09:42:36;;;;;;;5.70;1.20;;;;;;;16.56;49.57;100330.13;5027215;28;20488;-69
2021/05/05 09:45:06;;;;;;;6.82;0.98;;;;;;;16.66;49.60;100336.19;5016128;28;20084;-69
2021/05/05 09:47:55;;;;;;;6.82;1.10;;;;;;;16.76;48.61;100340.56;5031768;28;20033;-69
2021/05/05 09:50:38;;;;;;;4.50;1.20;;;;;;;16.85;46.67;100348.94;5000283;28;20028;-69
2021/05/05 09:53:21;;;;;;;5.50;1.30;;;;;;;16.86;47.40;100339.38;5042352;28;20095;-71
2021/05/05 09:55:54;;;;;;;7.65;1.13;;;;;;;16.88;47.62;100345.44;5030362;28;20113;-70
2021/05/05 09:58:20;;;;;;;4.20;0.95;;;;;;;16.90;47.74;100355.16;5047075;28;20025;-70
2021/05/05 10:00:46;;;;;;;4.82;1.35;;;;;;;16.90;47.09;100345.94;5066357;28;20040;-70
2021/05/05 10:03:12;;;;;;;4.53;1.05;;;;;;;16.85;47.99;100346.13;5032664;28;20367;-69
2021/05/05 10:05:37;;;;;;;5.53;1.40;;;;;;;16.78;45.99;100354.28;5027250;28;20155;-69
2021/05/05 10:08:06;;;;;;;5.85;1.25;;;;;;;16.78;47.28;100354.28;5015403;28;20534;-69
2021/05/05 10:10:38;;;;;;;7.07;1.30;;;;;;;16.73;46.30;100364.47;5012090;28;20040;-70
2021/05/05 10:13:05;;;;;;;6.97;1.50;;;;;;;16.67;46.41;100360.25;5008602;28;20021;-69
2021/05/05 10:15:33;;;;;;;5.07;1.30;;;;;;;16.67;46.90;100360.25;5029675;28;20029;-70
2021/05/05 10:18:01;;;;;;;9.25;1.42;;;;;;;16.73;48.24;100358.88;5027576;28;20026;-70
2021/05/05 10:20:28;;;;;;;4.68;1.40;;;;;;;16.83;48.54;100357.72;4994129;28;20045;-69
2021/05/05 10:22:56;;;;;;;5.00;1.17;;;;;;;17.02;48.16;100376.03;5002798;28;20030;-69
2021/05/05 10:25:22;;;;;;;3.83;1.35;;;;;;;17.16;46.65;100371.81;4983191;28;20045;-69
2021/05/05 10:27:47;;;;;;;4.88;1.45;;;;;;;17.27;47.90;100372.22;5018234;28;20025;-77
2021/05/05 10:30:14;;;;;;;23.13;13.82;;;;;;;17.18;48.86;100368.66;4985684;28;20101;-76
2021/05/05 10:32:42;;;;;;;15.80;9.10;;;;;;;17.23;48.08;100370.44;4997789;28;20034;-72
2021/05/05 10:35:08;;;;;;;8.63;3.78;;;;;;;17.24;47.67;100370.09;5027199;28;20034;-73
2021/05/05 10:37:55;;;;;;;13.15;5.78;;;;;;;17.34;47.62;100361.28;5026386;28;20046;-72
2021/05/05 10:40:25;;;;;;;10.25;5.05;;;;;;;17.41;48.11;100360.72;5024163;28;20067;-73
2021/05/05 10:42:59;;;;;;;7.28;2.50;;;;;;;17.54;46.59;100365.22;5011981;28;20021;-73
2021/05/05 10:45:41;;;;;;;5.60;2.20;;;;;;;17.62;45.50;100374.72;4998008;28;20038;-71
2021/05/05 10:48:16;;;;;;;6.10;1.58;;;;;;;17.67;44.80;100373.72;5027185;28;20091;-70
2021/05/05 10:50:51;;;;;;;5.45;1.65;;;;;;;17.71;44.84;100366.22;5015302;28;20112;-69
2021/05/05 10:53:26;;;;;;;9.25;1.58;;;;;;;17.73;45.56;100373.13;5025104;28;20037;-69
2021/05/05 10:55:59;;;;;;;4.32;1.17;;;;;;;17.73;47.66;100366.69;5037809;28;20087;-70
2021/05/05 10:58:26;;;;;;;;;;;;;;;17.63;47.79;100368.78;5017970;28;20029;-77
2021/05/05 11:01:34;;;;;;;5.90;1.23;;;;;;;17.60;47.51;100366.63;5013026;28;19924;-78
2021/05/05 11:04:00;;;;;;;4.85;1.33;;;;;;;17.57;47.06;100364.53;5023792;28;20025;-78
2021/05/05 11:06:47;;;;;;;5.50;1.40;;;;;;;17.60;47.17;100369.44;5001541;28;20117;-78
2021/05/05 11:09:12;;;;;;;4.75;1.50;;;;;;;17.60;47.50;100374.25;5062748;28;20108;-78
2021/05/05 11:11:43;;;;;;;6.80;1.08;;;;;;;17.64;47.33;100380.84;5029201;28;20101;-78
2021/05/05 11:14:08;;;;;;;5.95;1.60;;;;;;;17.62;47.29;100380.34;5027377;28;20040;-78
2021/05/05 11:16:54;;;;;;;6.78;1.35;;;;;;;17.61;47.70;100384.34;5062927;28;20029;-77
2021/05/05 11:19:41;;;;;;;8.38;1.13;;;;;;;17.59;48.20;100395.91;5032191;28;20083;-78
2021/05/05 11:22:07;;;;;;;7.22;1.42;;;;;;;17.59;48.06;100389.47;5019816;28;20040;-78
2021/05/05 11:24:34;;;;;;;6.65;1.25;;;;;;;17.60;48.07;100397.53;5066596;28;20025;-78
2021/05/05 11:27:00;;;;;;;4.55;1.13;;;;;;;17.60;47.97;100396.72;5034591;28;20536;-77
2021/05/05 11:29:33;;;;;;;6.10;1.58;;;;;;;17.60;47.79;100400.34;5034907;28;20037;-78
2021/05/05 11:32:00;;;;;;;5.60;1.20;;;;;;;17.62;47.95;100395.19;5032231;28;20103;-77
2021/05/05 11:34:26;;;;;;;7.10;1.25;;;;;;;17.61;47.72;100399.19;5021816;28;20089;-77
2021/05/05 11:36:57;;;;;;;6.97;1.13;;;;;;;17.57;47.49;100400.22;5037750;28;20049;-78